Time,TemperatureF,DewpointF,PressureIn,WindDirection,WindDirectionDegrees,WindSpeedMPH,WindSpeedGustMPH,Humidity,HourlyPrecipIn,Conditions,Clouds,dailyrainin,SoftwareType,DateUTC
2013-09-25 00:14:00,55.0,50.0,29.98,ENE,73,0.0,1.0,83,0.00,,,0.00,,2013-09-25 04:14:00,
2013-09-25 00:24:00,55.0,50.0,29.98,ENE,73,0.0,1.0,84,0.00,,,0.00,,2013-09-25 04:24:00,
2013-09-25 00:54:00,55.0,51.0,29.99,ENE,73,0.0,0.0,85,0.00,,,0.00,,2013-09-25 04:54:00,
2013-09-25 01:23:00,54.0,50.0,29.98,ENE,73,1.0,3.0,86,0.00,,,0.00,,2013-09-25 05:23:00,
2013-09-25 01:53:00,54.0,50.0,29.98,ENE,73,0.0,0.0,87,0.00,,,0.00,,2013-09-25 05:53:00,
2013-09-25 02:13:00,54.0,50.0,29.98,North,4,0.0,3.0,86,0.00,,,0.00,,2013-09-25 06:13:00,
2013-09-25 02:23:00,54.0,50.0,29.98,North,4,0.0,3.0,86,0.00,,,0.00,,2013-09-25 06:23:00,
2013-09-25 02:52:00,53.0,49.0,29.97,North,4,0.0,0.0,87,0.00,,,0.00,,2013-09-25 06:52:00,
2013-09-25 03:01:00,53.0,49.0,29.97,North,4,0.0,0.0,87,0.00,,,0.00,,2013-09-25 07:01:00,
2013-09-25 03:22:00,52.0,48.0,29.96,North,4,0.0,0.0,87,0.00,,,0.00,,2013-09-25 07:22:00,
2013-09-25 03:53:00,52.0,48.0,29.96,North,4,0.0,0.0,87,0.00,,,0.00,,2013-09-25 07:53:00,
2013-09-25 04:21:00,51.0,47.0,29.95,North,4,0.0,0.0,87,0.00,,,0.00,,2013-09-25 08:21:00,
2013-09-25 04:53:00,51.0,47.0,29.95,North,4,0.0,0.0,87,0.00,,,0.00,,2013-09-25 08:53:00,
2013-09-25 05:22:00,50.0,46.0,29.95,North,4,0.0,0.0,87,0.00,,,0.00,,2013-09-25 09:22:00,
2013-09-25 05:54:00,50.0,46.0,29.95,North,4,0.0,1.0,87,0.00,,,0.00,,2013-09-25 09:54:00,
2013-09-25 06:23:00,50.0,46.0,29.95,North,4,0.0,0.0,87,0.00,,,0.00,,2013-09-25 10:23:00,
2013-09-25 06:53:00,49.0,45.0,29.96,North,4,0.0,0.0,87,0.00,,,0.00,,2013-09-25 10:53:00,
2013-09-25 07:22:00,49.0,46.0,29.97,North,4,0.0,0.0,88,0.00,,,0.00,,2013-09-25 11:22:00,
2013-09-25 07:52:00,49.0,46.0,29.97,North,4,0.0,0.0,88,0.00,,,0.00,,2013-09-25 11:52:00,
2013-09-25 08:22:00,49.0,46.0,29.98,North,4,0.0,0.0,89,0.00,,,0.00,,2013-09-25 12:22:00,
2013-09-25 08:52:00,49.0,46.0,29.97,North,4,0.0,0.0,89,0.00,,,0.00,,2013-09-25 12:52:00,
2013-09-25 09:22:00,54.0,50.0,29.96,North,4,0.0,0.0,85,0.00,,,0.00,,2013-09-25 13:22:00,
2013-09-25 09:52:00,54.0,50.0,29.97,North,4,0.0,2.0,86,0.00,,,0.00,,2013-09-25 13:52:00,
2013-09-25 10:22:00,57.0,52.0,29.97,ENE,78,1.0,5.0,83,0.00,,,0.00,,2013-09-25 14:22:00,
2013-09-25 10:52:00,57.0,51.0,29.98,ENE,75,1.0,3.0,81,0.00,,,0.00,,2013-09-25 14:52:00,
2013-09-25 11:22:00,58.0,51.0,29.98,ENE,75,2.0,3.0,77,0.00,,,0.00,,2013-09-25 15:22:00,
2013-09-25 11:54:00,57.0,51.0,29.98,ENE,75,1.0,2.0,79,0.00,,,0.00,,2013-09-25 15:54:00,
2013-09-25 12:23:00,58.0,51.0,29.98,ENE,76,1.0,3.0,77,0.00,,,0.00,,2013-09-25 16:23:00,
2013-09-25 12:53:00,58.0,52.0,29.98,ENE,76,0.0,1.0,79,0.00,,,0.00,,2013-09-25 16:53:00,
2013-09-25 13:13:00,58.0,51.0,29.98,ENE,76,1.0,3.0,78,0.00,,,0.00,,2013-09-25 17:13:00,
2013-09-25 13:23:00,58.0,51.0,29.98,ENE,76,1.0,3.0,78,0.00,,,0.00,,2013-09-25 17:23:00,
2013-09-25 13:34:00,58.0,51.0,29.98,ENE,76,1.0,3.0,78,0.00,,,0.00,,2013-09-25 17:34:00,
2013-09-25 13:52:00,60.0,52.0,29.97,ENE,77,1.0,3.0,76,0.00,,,0.00,,2013-09-25 17:52:00,
2013-09-25 14:22:00,60.0,52.0,29.96,ENE,77,1.0,3.0,76,0.00,,,0.00,,2013-09-25 18:22:00,
2013-09-25 14:52:00,60.0,53.0,29.95,ENE,77,0.0,3.0,77,0.00,,,0.00,,2013-09-25 18:52:00,
2013-09-25 20:22:00,59.0,51.0,29.94,ENE,78,0.0,0.0,75,0.00,,,0.00,,2013-09-26 00:22:00,
2013-09-25 20:52:00,58.0,49.0,29.94,East,79,0.0,3.0,73,0.00,,,0.00,,2013-09-26 00:52:00,
2013-09-25 21:02:00,58.0,49.0,29.94,East,79,0.0,3.0,73,0.00,,,0.00,,2013-09-26 01:02:00,
2013-09-25 21:23:00,58.0,51.0,29.95,East,79,1.0,3.0,77,0.00,,,0.00,,2013-09-26 01:23:00,
2013-09-25 21:52:00,57.0,50.0,29.96,East,79,0.0,0.0,78,0.00,,,0.00,,2013-09-26 01:52:00,
2013-09-25 22:22:00,57.0,51.0,29.96,East,79,0.0,1.0,80,0.00,,,0.00,,2013-09-26 02:22:00,
2013-09-25 23:22:00,56.0,51.0,29.96,East,79,0.0,0.0,83,0.00,,,0.00,,2013-09-26 03:22:00,
2013-09-25 23:55:00,55.0,50.0,29.96,East,79,0.0,0.0,84,0.00,,,0.00,,2013-09-26 03:55:00,